sensor_id;sensor_type;location;lat;lon;timestamp;temperature;humidity
22645;DHT22;11489;50.834;6.752;2022-08-18T00:01:15;16.80;69.90
22645;DHT22;11489;50.834;6.752;2022-08-18T00:03:42;16.80;70.00
22645;DHT22;11489;50.834;6.752;2022-08-18T00:06:08;16.70;70.10
22645;DHT22;11489;50.834;6.752;2022-08-18T00:08:34;16.70;70.20
22645;DHT22;11489;50.834;6.752;2022-08-18T00:11:00;16.70;70.40
22645;DHT22;11489;50.834;6.752;2022-08-18T00:13:26;16.70;70.60
22645;DHT22;11489;50.834;6.752;2022-08-18T00:15:52;16.70;70.70
22645;DHT22;11489;50.834;6.752;2022-08-18T00:18:17;16.70;70.90
22645;DHT22;11489;50.834;6.752;2022-08-18T00:20:43;16.70;71.00
22645;DHT22;11489;50.834;6.752;2022-08-18T00:23:09;16.70;71.20
22645;DHT22;11489;50.834;6.752;2022-08-18T00:25:35;16.60;71.20
22645;DHT22;11489;50.834;6.752;2022-08-18T00:28:01;16.60;71.40
22645;DHT22;11489;50.834;6.752;2022-08-18T00:30:27;16.60;72.20
22645;DHT22;11489;50.834;6.752;2022-08-18T00:32:56;16.60;71.60
22645;DHT22;11489;50.834;6.752;2022-08-18T00:35:29;16.60;71.90
22645;DHT22;11489;50.834;6.752;2022-08-18T00:37:57;16.60;71.90
22645;DHT22;11489;50.834;6.752;2022-08-18T00:40:27;16.50;71.80
22645;DHT22;11489;50.834;6.752;2022-08-18T00:42:58;16.50;71.90
22645;DHT22;11489;50.834;6.752;2022-08-18T00:45:38;16.50;71.90
22645;DHT22;11489;50.834;6.752;2022-08-18T00:48:07;16.50;72.90
22645;DHT22;11489;50.834;6.752;2022-08-18T00:50:41;16.50;71.80
22645;DHT22;11489;50.834;6.752;2022-08-18T00:53:19;16.50;72.20
22645;DHT22;11489;50.834;6.752;2022-08-18T00:55:46;16.40;71.90
22645;DHT22;11489;50.834;6.752;2022-08-18T00:58:25;16.40;71.60
22645;DHT22;11489;50.834;6.752;2022-08-18T01:00:52;16.30;72.30
22645;DHT22;11489;50.834;6.752;2022-08-18T01:03:20;16.30;71.60
22645;DHT22;11489;50.834;6.752;2022-08-18T01:05:54;16.20;72.00
22645;DHT22;11489;50.834;6.752;2022-08-18T01:08:20;16.10;72.20
22645;DHT22;11489;50.834;6.752;2022-08-18T01:10:47;16.10;72.10
22645;DHT22;11489;50.834;6.752;2022-08-18T01:13:13;16.10;72.30
22645;DHT22;11489;50.834;6.752;2022-08-18T01:15:39;16.00;72.40
22645;DHT22;11489;50.834;6.752;2022-08-18T01:18:11;16.00;72.50
22645;DHT22;11489;50.834;6.752;2022-08-18T01:21:19;16.00;73.00
22645;DHT22;11489;50.834;6.752;2022-08-18T01:24:08;15.90;74.20
22645;DHT22;11489;50.834;6.752;2022-08-18T01:26:39;15.90;72.70
22645;DHT22;11489;50.834;6.752;2022-08-18T01:29:09;15.80;73.20
22645;DHT22;11489;50.834;6.752;2022-08-18T01:31:44;15.80;72.80
22645;DHT22;11489;50.834;6.752;2022-08-18T01:34:12;15.70;73.40
22645;DHT22;11489;50.834;6.752;2022-08-18T01:36:39;15.70;73.00
22645;DHT22;11489;50.834;6.752;2022-08-18T01:39:08;15.70;73.20
22645;DHT22;11489;50.834;6.752;2022-08-18T01:41:33;15.60;73.20
22645;DHT22;11489;50.834;6.752;2022-08-18T01:44:00;15.60;73.20
22645;DHT22;11489;50.834;6.752;2022-08-18T01:46:28;15.60;73.50
22645;DHT22;11489;50.834;6.752;2022-08-18T01:48:55;15.50;73.60
22645;DHT22;11489;50.834;6.752;2022-08-18T01:51:21;15.50;73.70
22645;DHT22;11489;50.834;6.752;2022-08-18T01:53:47;15.50;73.80
22645;DHT22;11489;50.834;6.752;2022-08-18T01:56:13;15.50;74.00
22645;DHT22;11489;50.834;6.752;2022-08-18T01:58:42;15.50;74.20
22645;DHT22;11489;50.834;6.752;2022-08-18T02:01:09;15.50;74.30
22645;DHT22;11489;50.834;6.752;2022-08-18T02:03:40;15.40;74.30
22645;DHT22;11489;50.834;6.752;2022-08-18T02:06:10;15.40;74.70
22645;DHT22;11489;50.834;6.752;2022-08-18T02:08:36;15.40;74.70
22645;DHT22;11489;50.834;6.752;2022-08-18T02:11:03;15.40;74.80
22645;DHT22;11489;50.834;6.752;2022-08-18T02:13:29;15.40;74.90
22645;DHT22;11489;50.834;6.752;2022-08-18T02:15:54;15.40;75.00
22645;DHT22;11489;50.834;6.752;2022-08-18T02:18:23;15.40;75.10
22645;DHT22;11489;50.834;6.752;2022-08-18T02:20:49;15.40;75.10
22645;DHT22;11489;50.834;6.752;2022-08-18T02:23:15;15.40;75.00
22645;DHT22;11489;50.834;6.752;2022-08-18T02:25:42;15.30;75.00
22645;DHT22;11489;50.834;6.752;2022-08-18T02:28:09;15.30;75.10
22645;DHT22;11489;50.834;6.752;2022-08-18T02:30:35;15.30;75.10
22645;DHT22;11489;50.834;6.752;2022-08-18T02:33:05;15.20;75.10
22645;DHT22;11489;50.834;6.752;2022-08-18T02:35:32;15.20;75.20
22645;DHT22;11489;50.834;6.752;2022-08-18T02:37:59;15.20;75.20
22645;DHT22;11489;50.834;6.752;2022-08-18T02:40:25;15.20;75.20
22645;DHT22;11489;50.834;6.752;2022-08-18T02:42:51;15.20;75.30
22645;DHT22;11489;50.834;6.752;2022-08-18T02:45:17;15.10;75.50
22645;DHT22;11489;50.834;6.752;2022-08-18T02:47:43;15.10;75.70
22645;DHT22;11489;50.834;6.752;2022-08-18T02:50:10;15.10;75.70
22645;DHT22;11489;50.834;6.752;2022-08-18T02:52:35;15.10;75.70
22645;DHT22;11489;50.834;6.752;2022-08-18T02:55:02;15.00;75.70
22645;DHT22;11489;50.834;6.752;2022-08-18T02:57:28;15.00;75.70
22645;DHT22;11489;50.834;6.752;2022-08-18T02:59:54;15.00;75.70
22645;DHT22;11489;50.834;6.752;2022-08-18T03:02:21;14.90;75.70
22645;DHT22;11489;50.834;6.752;2022-08-18T03:04:47;14.90;75.70
22645;DHT22;11489;50.834;6.752;2022-08-18T03:07:13;14.90;75.80
22645;DHT22;11489;50.834;6.752;2022-08-18T03:09:40;14.90;75.90
22645;DHT22;11489;50.834;6.752;2022-08-18T03:12:07;14.80;75.90
22645;DHT22;11489;50.834;6.752;2022-08-18T03:14:34;14.80;76.00
22645;DHT22;11489;50.834;6.752;2022-08-18T03:17:05;14.80;76.10
22645;DHT22;11489;50.834;6.752;2022-08-18T03:19:33;14.70;76.30
22645;DHT22;11489;50.834;6.752;2022-08-18T03:21:59;14.70;76.30
22645;DHT22;11489;50.834;6.752;2022-08-18T03:24:26;14.70;77.10
22645;DHT22;11489;50.834;6.752;2022-08-18T03:26:53;14.70;76.60
22645;DHT22;11489;50.834;6.752;2022-08-18T03:29:21;14.60;76.70
22645;DHT22;11489;50.834;6.752;2022-08-18T03:31:48;14.60;76.90
22645;DHT22;11489;50.834;6.752;2022-08-18T03:34:15;14.60;77.00
22645;DHT22;11489;50.834;6.752;2022-08-18T03:36:44;14.50;76.90
22645;DHT22;11489;50.834;6.752;2022-08-18T03:39:11;14.60;77.10
22645;DHT22;11489;50.834;6.752;2022-08-18T03:41:39;14.50;77.30
22645;DHT22;11489;50.834;6.752;2022-08-18T03:44:06;14.50;77.50
22645;DHT22;11489;50.834;6.752;2022-08-18T03:46:32;14.50;77.50
22645;DHT22;11489;50.834;6.752;2022-08-18T03:48:58;14.50;77.60
22645;DHT22;11489;50.834;6.752;2022-08-18T03:51:27;14.50;77.70
22645;DHT22;11489;50.834;6.752;2022-08-18T03:53:55;14.50;77.70
22645;DHT22;11489;50.834;6.752;2022-08-18T03:56:27;14.50;77.80
22645;DHT22;11489;50.834;6.752;2022-08-18T03:58:59;14.40;77.90
22645;DHT22;11489;50.834;6.752;2022-08-18T04:01:29;14.40;78.30
22645;DHT22;11489;50.834;6.752;2022-08-18T04:04:03;14.40;78.20
22645;DHT22;11489;50.834;6.752;2022-08-18T04:06:34;14.40;78.70
22645;DHT22;11489;50.834;6.752;2022-08-18T04:09:03;14.40;78.40
22645;DHT22;11489;50.834;6.752;2022-08-18T04:11:31;14.40;78.40
22645;DHT22;11489;50.834;6.752;2022-08-18T04:13:58;14.40;78.40
22645;DHT22;11489;50.834;6.752;2022-08-18T04:16:28;14.40;78.30
22645;DHT22;11489;50.834;6.752;2022-08-18T04:18:54;14.40;78.60
22645;DHT22;11489;50.834;6.752;2022-08-18T04:21:27;14.40;78.30
22645;DHT22;11489;50.834;6.752;2022-08-18T04:23:53;14.40;78.40
22645;DHT22;11489;50.834;6.752;2022-08-18T04:26:18;14.40;78.40
22645;DHT22;11489;50.834;6.752;2022-08-18T04:28:45;14.40;78.60
22645;DHT22;11489;50.834;6.752;2022-08-18T04:31:13;14.40;78.80
22645;DHT22;11489;50.834;6.752;2022-08-18T04:33:39;14.50;79.20
22645;DHT22;11489;50.834;6.752;2022-08-18T04:36:11;14.50;79.30
22645;DHT22;11489;50.834;6.752;2022-08-18T04:38:37;14.50;79.60
22645;DHT22;11489;50.834;6.752;2022-08-18T04:41:05;14.60;79.60
22645;DHT22;11489;50.834;6.752;2022-08-18T04:43:30;14.70;79.80
22645;DHT22;11489;50.834;6.752;2022-08-18T04:45:57;14.70;80.10
22645;DHT22;11489;50.834;6.752;2022-08-18T04:48:36;14.80;80.40
22645;DHT22;11489;50.834;6.752;2022-08-18T04:51:10;14.90;80.80
22645;DHT22;11489;50.834;6.752;2022-08-18T04:53:37;15.00;80.90
22645;DHT22;11489;50.834;6.752;2022-08-18T04:56:25;15.10;80.60
22645;DHT22;11489;50.834;6.752;2022-08-18T04:59:11;15.20;81.20
22645;DHT22;11489;50.834;6.752;2022-08-18T05:01:40;15.30;81.60
22645;DHT22;11489;50.834;6.752;2022-08-18T05:04:07;15.40;80.40
22645;DHT22;11489;50.834;6.752;2022-08-18T05:06:34;15.50;80.30
22645;DHT22;11489;50.834;6.752;2022-08-18T05:09:04;15.60;80.30
22645;DHT22;11489;50.834;6.752;2022-08-18T05:11:31;15.60;80.10
22645;DHT22;11489;50.834;6.752;2022-08-18T05:13:58;15.70;79.90
22645;DHT22;11489;50.834;6.752;2022-08-18T05:16:25;15.70;79.80
22645;DHT22;11489;50.834;6.752;2022-08-18T05:18:51;15.80;79.70
22645;DHT22;11489;50.834;6.752;2022-08-18T05:21:19;15.80;79.60
22645;DHT22;11489;50.834;6.752;2022-08-18T05:23:48;15.90;79.60
22645;DHT22;11489;50.834;6.752;2022-08-18T05:26:16;15.90;79.50
22645;DHT22;11489;50.834;6.752;2022-08-18T05:28:43;15.90;79.60
22645;DHT22;11489;50.834;6.752;2022-08-18T05:31:15;16.00;79.50
22645;DHT22;11489;50.834;6.752;2022-08-18T05:33:42;16.00;79.60
22645;DHT22;11489;50.834;6.752;2022-08-18T05:37:13;16.10;79.60
22645;DHT22;11489;50.834;6.752;2022-08-18T05:39:22;16.20;80.60
22645;DHT22;11489;50.834;6.752;2022-08-18T05:44:26;16.30;79.60
22645;DHT22;11489;50.834;6.752;2022-08-18T05:46:54;16.30;79.60
22645;DHT22;11489;50.834;6.752;2022-08-18T05:49:21;16.40;79.60
22645;DHT22;11489;50.834;6.752;2022-08-18T05:51:52;16.50;79.50
22645;DHT22;11489;50.834;6.752;2022-08-18T05:54:20;16.50;79.60
22645;DHT22;11489;50.834;6.752;2022-08-18T05:57:09;16.60;79.40
22645;DHT22;11489;50.834;6.752;2022-08-18T05:59:38;16.60;79.30
22645;DHT22;11489;50.834;6.752;2022-08-18T06:05:10;16.70;79.60
22645;DHT22;11489;50.834;6.752;2022-08-18T06:07:56;16.70;79.20
22645;DHT22;11489;50.834;6.752;2022-08-18T06:10:23;16.80;79.70
22645;DHT22;11489;50.834;6.752;2022-08-18T06:12:55;16.80;78.90
22645;DHT22;11489;50.834;6.752;2022-08-18T06:20:54;16.80;79.00
22645;DHT22;11489;50.834;6.752;2022-08-18T06:28:44;16.90;78.80
22645;DHT22;11489;50.834;6.752;2022-08-18T06:34:10;16.90;79.30
22645;DHT22;11489;50.834;6.752;2022-08-18T06:39:30;17.10;79.70
22645;DHT22;11489;50.834;6.752;2022-08-18T06:41:56;17.10;79.30
22645;DHT22;11489;50.834;6.752;2022-08-18T06:44:38;17.10;79.30
22645;DHT22;11489;50.834;6.752;2022-08-18T06:47:15;17.20;80.20
22645;DHT22;11489;50.834;6.752;2022-08-18T06:49:50;17.20;80.10
22645;DHT22;11489;50.834;6.752;2022-08-18T06:52:28;17.30;80.20
22645;DHT22;11489;50.834;6.752;2022-08-18T06:54:57;17.30;80.30
22645;DHT22;11489;50.834;6.752;2022-08-18T06:57:35;17.40;79.90
22645;DHT22;11489;50.834;6.752;2022-08-18T07:05:15;17.50;80.20
22645;DHT22;11489;50.834;6.752;2022-08-18T07:07:43;17.60;80.10
22645;DHT22;11489;50.834;6.752;2022-08-18T07:12:41;17.70;80.50
22645;DHT22;11489;50.834;6.752;2022-08-18T07:15:10;17.80;80.30
22645;DHT22;11489;50.834;6.752;2022-08-18T07:17:37;17.90;80.50
22645;DHT22;11489;50.834;6.752;2022-08-18T07:20:07;17.90;80.00
22645;DHT22;11489;50.834;6.752;2022-08-18T07:22:55;18.00;80.10
22645;DHT22;11489;50.834;6.752;2022-08-18T07:25:25;18.10;81.10
22645;DHT22;11489;50.834;6.752;2022-08-18T07:27:52;18.10;80.10
22645;DHT22;11489;50.834;6.752;2022-08-18T07:35:38;18.30;79.80
22645;DHT22;11489;50.834;6.752;2022-08-18T07:38:35;18.40;79.80
22645;DHT22;11489;50.834;6.752;2022-08-18T07:41:03;18.50;80.10
22645;DHT22;11489;50.834;6.752;2022-08-18T07:46:46;18.60;80.30
22645;DHT22;11489;50.834;6.752;2022-08-18T07:49:21;18.60;81.00
22645;DHT22;11489;50.834;6.752;2022-08-18T07:52:11;18.70;80.50
22645;DHT22;11489;50.834;6.752;2022-08-18T08:00:50;19.20;80.80
22645;DHT22;11489;50.834;6.752;2022-08-18T08:03:29;19.30;80.50
22645;DHT22;11489;50.834;6.752;2022-08-18T08:09:18;19.60;79.80
22645;DHT22;11489;50.834;6.752;2022-08-18T08:11:54;19.70;79.20
22645;DHT22;11489;50.834;6.752;2022-08-18T08:14:49;19.80;78.90
22645;DHT22;11489;50.834;6.752;2022-08-18T08:20:20;19.90;78.50
22645;DHT22;11489;50.834;6.752;2022-08-18T08:28:50;19.80;77.30
22645;DHT22;11489;50.834;6.752;2022-08-18T08:31:47;19.80;77.70
22645;DHT22;11489;50.834;6.752;2022-08-18T08:36:46;19.80;77.50
22645;DHT22;11489;50.834;6.752;2022-08-18T08:39:24;19.70;77.40
22645;DHT22;11489;50.834;6.752;2022-08-18T08:42:05;19.80;77.70
22645;DHT22;11489;50.834;6.752;2022-08-18T08:44:44;19.80;77.50
22645;DHT22;11489;50.834;6.752;2022-08-18T08:47:20;19.80;77.50
22645;DHT22;11489;50.834;6.752;2022-08-18T08:49:57;19.80;77.40
22645;DHT22;11489;50.834;6.752;2022-08-18T08:55:15;19.90;77.80
22645;DHT22;11489;50.834;6.752;2022-08-18T08:57:47;19.90;77.70
22645;DHT22;11489;50.834;6.752;2022-08-18T09:00:14;20.00;77.60
22645;DHT22;11489;50.834;6.752;2022-08-18T09:02:51;20.00;77.40
22645;DHT22;11489;50.834;6.752;2022-08-18T09:08:22;20.10;77.20
22645;DHT22;11489;50.834;6.752;2022-08-18T09:16:54;20.30;77.10
22645;DHT22;11489;50.834;6.752;2022-08-18T09:19:49;20.40;77.20
22645;DHT22;11489;50.834;6.752;2022-08-18T09:24:52;20.50;77.20
22645;DHT22;11489;50.834;6.752;2022-08-18T09:27:41;20.70;77.10
22645;DHT22;11489;50.834;6.752;2022-08-18T09:33:22;20.90;77.00
22645;DHT22;11489;50.834;6.752;2022-08-18T09:38:25;21.20;76.70
22645;DHT22;11489;50.834;6.752;2022-08-18T09:41:20;21.30;76.50
22645;DHT22;11489;50.834;6.752;2022-08-18T09:44:09;21.40;76.20
22645;DHT22;11489;50.834;6.752;2022-08-18T09:51:59;21.90;75.50
22645;DHT22;11489;50.834;6.752;2022-08-18T09:54:32;22.10;76.40
22645;DHT22;11489;50.834;6.752;2022-08-18T09:57:20;22.30;75.50
22645;DHT22;11489;50.834;6.752;2022-08-18T10:05:27;23.00;73.40
22645;DHT22;11489;50.834;6.752;2022-08-18T10:13:29;23.50;73.00
22645;DHT22;11489;50.834;6.752;2022-08-18T10:24:21;24.10;69.70
22645;DHT22;11489;50.834;6.752;2022-08-18T10:39:55;24.40;68.70
22645;DHT22;11489;50.834;6.752;2022-08-18T10:42:30;24.40;69.00
22645;DHT22;11489;50.834;6.752;2022-08-18T10:45:14;24.60;68.70
22645;DHT22;11489;50.834;6.752;2022-08-18T10:47:43;24.60;67.40
22645;DHT22;11489;50.834;6.752;2022-08-18T10:50:19;24.70;68.60
22645;DHT22;11489;50.834;6.752;2022-08-18T10:53:03;24.70;67.30
22645;DHT22;11489;50.834;6.752;2022-08-18T11:00:49;25.00;67.50
22645;DHT22;11489;50.834;6.752;2022-08-18T11:06:07;25.20;66.00
22645;DHT22;11489;50.834;6.752;2022-08-18T11:08:46;25.30;66.80
22645;DHT22;11489;50.834;6.752;2022-08-18T11:11:23;25.40;65.50
22645;DHT22;11489;50.834;6.752;2022-08-18T11:17:12;25.50;65.80
22645;DHT22;11489;50.834;6.752;2022-08-18T11:19:42;25.50;64.20
22645;DHT22;11489;50.834;6.752;2022-08-18T11:22:31;25.50;65.10
22645;DHT22;11489;50.834;6.752;2022-08-18T11:24:58;25.60;63.70
22645;DHT22;11489;50.834;6.752;2022-08-18T11:27:28;25.60;65.00
22645;DHT22;11489;50.834;6.752;2022-08-18T11:29:58;25.70;64.80
22645;DHT22;11489;50.834;6.752;2022-08-18T11:32:33;25.80;64.50
22645;DHT22;11489;50.834;6.752;2022-08-18T11:37:43;26.20;64.30
22645;DHT22;11489;50.834;6.752;2022-08-18T11:40:31;26.40;64.20
22645;DHT22;11489;50.834;6.752;2022-08-18T11:43:02;26.60;62.70
22645;DHT22;11489;50.834;6.752;2022-08-18T11:56:45;27.20;60.70
22645;DHT22;11489;50.834;6.752;2022-08-18T12:01:54;27.20;60.00
22645;DHT22;11489;50.834;6.752;2022-08-18T12:04:38;27.10;60.20
22645;DHT22;11489;50.834;6.752;2022-08-18T12:07:13;27.00;58.60
22645;DHT22;11489;50.834;6.752;2022-08-18T12:09:50;26.90;59.10
22645;DHT22;11489;50.834;6.752;2022-08-18T12:12:33;26.80;59.10
22645;DHT22;11489;50.834;6.752;2022-08-18T12:17:37;26.70;59.40
22645;DHT22;11489;50.834;6.752;2022-08-18T12:20:03;26.70;59.50
22645;DHT22;11489;50.834;6.752;2022-08-18T12:22:34;26.60;59.40
22645;DHT22;11489;50.834;6.752;2022-08-18T12:25:00;26.60;59.40
22645;DHT22;11489;50.834;6.752;2022-08-18T12:27:27;26.60;59.10
22645;DHT22;11489;50.834;6.752;2022-08-18T12:29:54;26.50;59.00
22645;DHT22;11489;50.834;6.752;2022-08-18T12:32:22;26.50;59.00
22645;DHT22;11489;50.834;6.752;2022-08-18T12:34:49;26.50;58.90
22645;DHT22;11489;50.834;6.752;2022-08-18T12:37:18;26.50;58.90
22645;DHT22;11489;50.834;6.752;2022-08-18T12:39:44;26.40;58.60
22645;DHT22;11489;50.834;6.752;2022-08-18T12:42:10;26.40;58.60
22645;DHT22;11489;50.834;6.752;2022-08-18T12:44:36;26.30;58.60
22645;DHT22;11489;50.834;6.752;2022-08-18T12:47:10;26.30;58.70
22645;DHT22;11489;50.834;6.752;2022-08-18T12:49:37;26.20;58.70
22645;DHT22;11489;50.834;6.752;2022-08-18T12:52:03;26.30;59.10
22645;DHT22;11489;50.834;6.752;2022-08-18T12:54:29;26.30;59.00
22645;DHT22;11489;50.834;6.752;2022-08-18T12:56:56;26.40;58.90
22645;DHT22;11489;50.834;6.752;2022-08-18T12:59:23;26.50;58.80
22645;DHT22;11489;50.834;6.752;2022-08-18T13:01:49;26.50;58.50
22645;DHT22;11489;50.834;6.752;2022-08-18T13:04:15;26.60;58.50
22645;DHT22;11489;50.834;6.752;2022-08-18T13:06:47;26.60;58.60
22645;DHT22;11489;50.834;6.752;2022-08-18T13:09:13;26.70;58.20
22645;DHT22;11489;50.834;6.752;2022-08-18T13:11:39;26.90;58.50
22645;DHT22;11489;50.834;6.752;2022-08-18T13:14:06;27.00;58.20
22645;DHT22;11489;50.834;6.752;2022-08-18T13:16:35;27.10;58.00
22645;DHT22;11489;50.834;6.752;2022-08-18T13:19:02;27.10;57.50
22645;DHT22;11489;50.834;6.752;2022-08-18T13:21:28;27.20;57.50
22645;DHT22;11489;50.834;6.752;2022-08-18T13:23:54;27.20;57.40
22645;DHT22;11489;50.834;6.752;2022-08-18T13:26:30;27.20;57.00
22645;DHT22;11489;50.834;6.752;2022-08-18T13:28:56;27.20;56.40
22645;DHT22;11489;50.834;6.752;2022-08-18T13:31:22;27.30;57.10
22645;DHT22;11489;50.834;6.752;2022-08-18T13:33:48;27.30;56.90
22645;DHT22;11489;50.834;6.752;2022-08-18T13:36:15;27.30;56.70
22645;DHT22;11489;50.834;6.752;2022-08-18T13:38:41;27.40;56.50
22645;DHT22;11489;50.834;6.752;2022-08-18T13:41:09;27.40;56.40
22645;DHT22;11489;50.834;6.752;2022-08-18T13:43:37;27.50;56.30
22645;DHT22;11489;50.834;6.752;2022-08-18T13:46:04;27.50;55.70
22645;DHT22;11489;50.834;6.752;2022-08-18T13:48:31;27.50;55.90
22645;DHT22;11489;50.834;6.752;2022-08-18T13:50:57;27.60;56.10
22645;DHT22;11489;50.834;6.752;2022-08-18T13:53:25;27.70;56.00
22645;DHT22;11489;50.834;6.752;2022-08-18T13:55:51;27.80;55.70
22645;DHT22;11489;50.834;6.752;2022-08-18T13:58:17;27.90;55.40
22645;DHT22;11489;50.834;6.752;2022-08-18T14:00:44;28.00;55.20
22645;DHT22;11489;50.834;6.752;2022-08-18T14:03:10;28.00;55.10
22645;DHT22;11489;50.834;6.752;2022-08-18T14:05:36;28.10;55.10
22645;DHT22;11489;50.834;6.752;2022-08-18T14:08:03;28.20;54.30
22645;DHT22;11489;50.834;6.752;2022-08-18T14:10:30;28.20;54.10
22645;DHT22;11489;50.834;6.752;2022-08-18T14:12:59;28.20;54.00
22645;DHT22;11489;50.834;6.752;2022-08-18T14:15:25;28.20;53.70
22645;DHT22;11489;50.834;6.752;2022-08-18T14:17:52;28.20;53.60
22645;DHT22;11489;50.834;6.752;2022-08-18T14:20:17;28.20;53.50
22645;DHT22;11489;50.834;6.752;2022-08-18T14:23:03;28.20;52.90
22645;DHT22;11489;50.834;6.752;2022-08-18T14:25:47;28.20;53.20
22645;DHT22;11489;50.834;6.752;2022-08-18T14:28:32;28.40;53.50
22645;DHT22;11489;50.834;6.752;2022-08-18T14:31:00;28.50;53.50
22645;DHT22;11489;50.834;6.752;2022-08-18T14:33:28;28.60;53.00
22645;DHT22;11489;50.834;6.752;2022-08-18T14:35:54;28.80;53.00
22645;DHT22;11489;50.834;6.752;2022-08-18T14:38:20;28.90;52.70
22645;DHT22;11489;50.834;6.752;2022-08-18T14:40:46;29.00;52.10
22645;DHT22;11489;50.834;6.752;2022-08-18T14:43:15;29.20;51.70
22645;DHT22;11489;50.834;6.752;2022-08-18T14:45:43;29.10;51.10
22645;DHT22;11489;50.834;6.752;2022-08-18T14:48:13;29.20;50.90
22645;DHT22;11489;50.834;6.752;2022-08-18T14:50:41;29.10;50.80
22645;DHT22;11489;50.834;6.752;2022-08-18T14:53:08;29.00;50.60
22645;DHT22;11489;50.834;6.752;2022-08-18T14:55:34;28.90;51.10
22645;DHT22;11489;50.834;6.752;2022-08-18T14:58:00;28.80;50.40
22645;DHT22;11489;50.834;6.752;2022-08-18T15:00:27;28.60;50.10
22645;DHT22;11489;50.834;6.752;2022-08-18T15:02:53;28.50;50.10
22645;DHT22;11489;50.834;6.752;2022-08-18T15:05:19;28.30;49.90
22645;DHT22;11489;50.834;6.752;2022-08-18T15:07:44;28.20;50.00
22645;DHT22;11489;50.834;6.752;2022-08-18T15:10:13;28.00;49.80
22645;DHT22;11489;50.834;6.752;2022-08-18T15:12:39;27.80;49.50
22645;DHT22;11489;50.834;6.752;2022-08-18T15:15:07;27.60;50.00
22645;DHT22;11489;50.834;6.752;2022-08-18T15:17:35;27.40;50.70
22645;DHT22;11489;50.834;6.752;2022-08-18T15:20:04;27.30;50.60
22645;DHT22;11489;50.834;6.752;2022-08-18T15:22:30;27.20;50.70
22645;DHT22;11489;50.834;6.752;2022-08-18T15:25:15;27.20;50.90
22645;DHT22;11489;50.834;6.752;2022-08-18T15:27:59;27.30;51.10
22645;DHT22;11489;50.834;6.752;2022-08-18T15:30:25;27.30;51.20
22645;DHT22;11489;50.834;6.752;2022-08-18T15:32:51;27.40;51.20
22645;DHT22;11489;50.834;6.752;2022-08-18T15:35:18;27.50;50.70
22645;DHT22;11489;50.834;6.752;2022-08-18T15:37:45;27.50;50.50
22645;DHT22;11489;50.834;6.752;2022-08-18T15:40:21;27.40;50.30
22645;DHT22;11489;50.834;6.752;2022-08-18T15:42:50;27.40;50.10
22645;DHT22;11489;50.834;6.752;2022-08-18T15:45:21;27.40;50.40
22645;DHT22;11489;50.834;6.752;2022-08-18T15:47:51;27.40;50.40
22645;DHT22;11489;50.834;6.752;2022-08-18T15:50:17;27.50;50.50
22645;DHT22;11489;50.834;6.752;2022-08-18T15:52:54;27.50;50.30
22645;DHT22;11489;50.834;6.752;2022-08-18T15:55:21;27.50;50.10
22645;DHT22;11489;50.834;6.752;2022-08-18T15:57:48;27.50;50.00
22645;DHT22;11489;50.834;6.752;2022-08-18T16:00:16;27.50;50.50
22645;DHT22;11489;50.834;6.752;2022-08-18T16:02:48;27.50;49.60
22645;DHT22;11489;50.834;6.752;2022-08-18T16:05:14;27.40;49.50
22645;DHT22;11489;50.834;6.752;2022-08-18T16:07:40;27.30;49.60
22645;DHT22;11489;50.834;6.752;2022-08-18T16:10:11;27.20;49.80
22645;DHT22;11489;50.834;6.752;2022-08-18T16:12:37;27.10;49.80
22645;DHT22;11489;50.834;6.752;2022-08-18T16:15:04;27.00;49.90
22645;DHT22;11489;50.834;6.752;2022-08-18T16:17:30;27.00;49.80
22645;DHT22;11489;50.834;6.752;2022-08-18T16:19:59;26.90;49.90
22645;DHT22;11489;50.834;6.752;2022-08-18T16:22:27;26.80;49.80
22645;DHT22;11489;50.834;6.752;2022-08-18T16:24:53;26.80;50.00
22645;DHT22;11489;50.834;6.752;2022-08-18T16:27:18;26.80;50.10
22645;DHT22;11489;50.834;6.752;2022-08-18T16:29:44;26.80;50.20
22645;DHT22;11489;50.834;6.752;2022-08-18T16:32:12;26.90;50.30
22645;DHT22;11489;50.834;6.752;2022-08-18T16:34:38;26.90;50.10
22645;DHT22;11489;50.834;6.752;2022-08-18T16:37:06;26.90;49.90
22645;DHT22;11489;50.834;6.752;2022-08-18T16:39:34;26.90;49.80
22645;DHT22;11489;50.834;6.752;2022-08-18T16:42:00;26.80;49.70
22645;DHT22;11489;50.834;6.752;2022-08-18T16:44:25;26.70;50.30
22645;DHT22;11489;50.834;6.752;2022-08-18T16:46:51;26.70;49.80
22645;DHT22;11489;50.834;6.752;2022-08-18T16:49:17;26.60;49.90
22645;DHT22;11489;50.834;6.752;2022-08-18T16:51:44;26.50;49.90
22645;DHT22;11489;50.834;6.752;2022-08-18T16:54:10;26.40;50.00
22645;DHT22;11489;50.834;6.752;2022-08-18T16:56:35;26.30;50.00
22645;DHT22;11489;50.834;6.752;2022-08-18T16:59:01;26.20;50.10
22645;DHT22;11489;50.834;6.752;2022-08-18T17:01:46;26.20;50.20
22645;DHT22;11489;50.834;6.752;2022-08-18T17:04:31;26.00;50.20
22645;DHT22;11489;50.834;6.752;2022-08-18T17:07:03;25.90;50.30
22645;DHT22;11489;50.834;6.752;2022-08-18T17:09:30;25.80;50.50
22645;DHT22;11489;50.834;6.752;2022-08-18T17:11:58;25.70;50.50
22645;DHT22;11489;50.834;6.752;2022-08-18T17:14:25;25.60;50.60
22645;DHT22;11489;50.834;6.752;2022-08-18T17:16:52;25.50;50.60
22645;DHT22;11489;50.834;6.752;2022-08-18T17:19:24;25.50;50.80
22645;DHT22;11489;50.834;6.752;2022-08-18T17:21:50;25.40;50.90
22645;DHT22;11489;50.834;6.752;2022-08-18T17:24:16;25.30;51.00
22645;DHT22;11489;50.834;6.752;2022-08-18T17:29:46;25.20;51.20
22645;DHT22;11489;50.834;6.752;2022-08-18T17:32:25;25.20;51.40
22645;DHT22;11489;50.834;6.752;2022-08-18T17:34:59;25.10;51.50
22645;DHT22;11489;50.834;6.752;2022-08-18T17:37:27;25.00;51.50
22645;DHT22;11489;50.834;6.752;2022-08-18T17:40:04;24.90;51.50
22645;DHT22;11489;50.834;6.752;2022-08-18T17:42:31;24.90;51.70
22645;DHT22;11489;50.834;6.752;2022-08-18T17:45:06;24.80;51.70
22645;DHT22;11489;50.834;6.752;2022-08-18T17:47:56;24.80;52.00
22645;DHT22;11489;50.834;6.752;2022-08-18T17:50:32;24.70;52.10
22645;DHT22;11489;50.834;6.752;2022-08-18T17:53:17;24.60;52.10
22645;DHT22;11489;50.834;6.752;2022-08-18T17:56:00;24.50;52.10
22645;DHT22;11489;50.834;6.752;2022-08-18T17:58:55;24.50;52.40
22645;DHT22;11489;50.834;6.752;2022-08-18T18:01:23;24.40;52.50
22645;DHT22;11489;50.834;6.752;2022-08-18T18:03:50;24.30;52.50
22645;DHT22;11489;50.834;6.752;2022-08-18T18:06:35;24.20;52.50
22645;DHT22;11489;50.834;6.752;2022-08-18T18:09:08;24.20;53.00
22645;DHT22;11489;50.834;6.752;2022-08-18T18:11:42;24.20;53.10
22645;DHT22;11489;50.834;6.752;2022-08-18T18:14:27;24.10;53.10
22645;DHT22;11489;50.834;6.752;2022-08-18T18:17:05;24.00;53.40
22645;DHT22;11489;50.834;6.752;2022-08-18T18:19:32;24.00;53.40
22645;DHT22;11489;50.834;6.752;2022-08-18T18:22:07;23.90;53.40